Time;durP1;ratioP1;P1;durP2;ratioP2;P2;SDS_P1;SDS_P2;PMS_P1;PMS_P2;Temp;Humidity;BMP_temperature;BMP_pressure;BME280_temperature;BME280_humidity;BME280_pressure;Samples;Min_cycle;Max_cycle;Signal;HPM_P1;HPM_P2
2021/05/17 00:00:50;;;;;;;2.43;1.90;;;10.10;99.90;;;;;;5074285;28;20409;-78
2021/05/17 00:03:17;;;;;;;1.60;1.50;;;10.10;99.90;;;;;;5060249;28;20409;-78
2021/05/17 00:05:43;;;;;;;6.20;2.17;;;10.20;99.90;;;;;;5060134;28;20521;-77
2021/05/17 00:08:09;;;;;;;4.30;1.53;;;10.10;99.90;;;;;;5058105;28;20953;-77
2021/05/17 00:10:35;;;;;;;1.87;1.50;;;10.10;99.90;;;;;;5073845;28;20170;-77
2021/05/17 00:13:02;;;;;;;1.50;1.40;;;10.00;99.90;;;;;;5060368;28;20439;-77
2021/05/17 00:15:28;;;;;;;2.30;1.70;;;10.10;99.90;;;;;;5059876;28;20593;-78
2021/05/17 00:17:55;;;;;;;8.53;1.57;;;10.00;99.90;;;;;;5062750;28;20447;-77
2021/05/17 00:20:22;;;;;;;7.53;1.87;;;10.00;99.90;;;;;;5056460;28;20428;-77
2021/05/17 00:22:48;;;;;;;2.33;1.40;;;10.00;99.90;;;;;;5073421;28;20451;-77
2021/05/17 00:25:15;;;;;;;2.37;1.33;;;10.00;99.90;;;;;;5070274;28;20467;-78
2021/05/17 00:27:42;;;;;;;1.60;1.50;;;10.00;99.90;;;;;;5067093;28;20710;-78
2021/05/17 00:30:08;;;;;;;1.90;1.63;;;10.00;99.90;;;;;;5072532;28;20428;-79
2021/05/17 00:32:35;;;;;;;1.73;1.63;;;10.00;99.90;;;;;;5073468;28;20417;-77
2021/05/17 00:35:01;;;;;;;1.40;1.30;;;10.10;99.90;;;;;;5077157;28;20464;-78
2021/05/17 00:37:26;;;;;;;2.33;1.43;;;10.10;99.90;;;;;;5070361;28;20425;-79
2021/05/17 00:39:52;;;;;;;4.70;1.73;;;10.10;99.90;;;;;;5070096;28;20800;-78
2021/05/17 00:42:18;;;;;;;6.40;1.77;;;10.00;99.90;;;;;;5075568;28;20253;-78
2021/05/17 00:44:44;;;;;;;3.00;1.50;;;10.00;99.90;;;;;;5079779;28;20438;-78
2021/05/17 00:47:14;;;;;;;4.40;2.27;;;10.00;99.90;;;;;;5058431;28;20424;-77
2021/05/17 00:49:41;;;;;;;3.40;1.77;;;10.00;99.90;;;;;;5078384;28;20190;-78
2021/05/17 00:52:08;;;;;;;1.80;1.60;;;10.00;99.90;;;;;;5059936;28;20551;-77
2021/05/17 00:54:34;;;;;;;1.60;1.50;;;9.90;99.90;;;;;;5069708;28;20460;-77
2021/05/17 00:57:01;;;;;;;3.40;2.20;;;9.90;99.90;;;;;;5065471;28;20417;-78
2021/05/17 00:59:27;;;;;;;3.27;1.50;;;9.90;99.90;;;;;;5065503;28;20417;-78
2021/05/17 01:01:55;;;;;;;2.10;1.90;;;9.90;99.90;;;;;;5056593;28;20504;-78
2021/05/17 01:04:23;;;;;;;2.40;1.80;;;10.00;99.90;;;;;;5076627;28;20565;-77
2021/05/17 01:06:53;;;;;;;4.80;2.33;;;10.00;99.90;;;;;;5074143;28;20505;-77
2021/05/17 01:09:20;;;;;;;3.53;1.97;;;10.00;99.90;;;;;;5072404;28;20193;-78
2021/05/17 01:11:46;;;;;;;2.30;1.70;;;10.10;99.90;;;;;;5077338;28;20428;-78
2021/05/17 01:14:13;;;;;;;3.60;2.00;;;10.10;99.90;;;;;;5076632;28;20538;-78
2021/05/17 01:16:38;;;;;;;2.37;1.67;;;10.10;99.90;;;;;;5074828;28;20216;-77
2021/05/17 01:19:08;;;;;;;3.30;1.80;;;10.20;99.90;;;;;;5056733;28;20413;-78
2021/05/17 01:21:36;;;;;;;3.40;1.70;;;10.30;99.90;;;;;;5057749;28;20185;-78
2021/05/17 01:24:03;;;;;;;1.70;1.60;;;10.30;99.90;;;;;;5056700;28;20420;-78
2021/05/17 01:26:31;;;;;;;3.00;1.70;;;10.30;99.90;;;;;;5057553;28;20471;-77
2021/05/17 01:28:59;;;;;;;2.90;1.70;;;10.30;99.90;;;;;;5058105;28;20984;-77
2021/05/17 01:31:25;;;;;;;2.40;1.80;;;10.50;99.90;;;;;;5075802;28;20432;-78
2021/05/17 01:34:01;;;;;;;2.00;1.77;;;10.50;99.90;;;;;;5056694;28;20416;-78
2021/05/17 01:36:36;;;;;;;2.10;1.60;;;10.50;99.90;;;;;;5059692;28;20292;-77
2021/05/17 01:39:03;;;;;;;9.13;1.73;;;10.60;99.90;;;;;;5062751;28;20427;-77
2021/05/17 01:41:28;;;;;;;2.37;1.63;;;10.60;99.90;;;;;;5080422;28;20424;-78
2021/05/17 01:43:56;;;;;;;3.40;1.40;;;10.70;99.90;;;;;;5062802;28;20405;-78
2021/05/17 01:46:38;;;;;;;2.60;1.30;;;10.80;99.90;;;;;;5077923;28;20243;-78
2021/05/17 01:49:12;;;;;;;3.03;1.40;;;10.70;99.90;;;;;;5056241;28;20439;-78
2021/05/17 01:52:19;;;;;;;3.10;1.57;;;10.70;99.90;;;;;;5074597;28;20465;-78
2021/05/17 01:55:16;;;;;;;3.27;1.47;;;10.80;99.90;;;;;;5061042;28;20510;-78
2021/05/17 01:58:02;;;;;;;1.73;1.50;;;10.70;99.90;;;;;;5048039;28;20523;-78
2021/05/17 02:00:30;;;;;;;2.30;1.33;;;10.60;99.90;;;;;;5066437;28;20420;-78
2021/05/17 02:02:58;;;;;;;1.60;1.50;;;10.60;99.90;;;;;;5057685;28;20856;-78
2021/05/17 02:05:37;;;;;;;2.13;1.30;;;10.60;99.90;;;;;;5061333;28;20451;-78
2021/05/17 02:08:04;;;;;;;1.53;1.43;;;10.70;99.90;;;;;;5076792;28;20425;-77
2021/05/17 02:10:31;;;;;;;2.93;1.47;;;10.60;99.90;;;;;;5076392;28;20432;-78
2021/05/17 02:12:58;;;;;;;1.93;1.70;;;10.60;99.90;;;;;;5050400;28;20425;-77
2021/05/17 02:15:25;;;;;;;1.97;1.77;;;10.60;99.90;;;;;;5058556;28;20484;-78
2021/05/17 02:18:08;;;;;;;1.73;1.50;;;10.60;99.90;;;;;;5076607;28;20894;-78
2021/05/17 02:20:36;;;;;;;1.37;1.20;;;10.60;99.90;;;;;;5062004;28;20820;-78
2021/05/17 02:23:07;;;;;;;1.40;1.20;;;10.70;99.90;;;;;;5076453;28;20424;-78
2021/05/17 02:25:33;;;;;;;4.40;1.50;;;10.70;99.90;;;;;;5076267;28;20500;-77
2021/05/17 02:27:59;;;;;;;1.63;1.50;;;10.70;99.90;;;;;;5070502;28;20432;-77
2021/05/17 02:30:26;;;;;;;1.50;1.40;;;10.80;99.90;;;;;;5076614;28;20424;-78
2021/05/17 02:32:53;;;;;;;2.70;1.30;;;10.70;99.90;;;;;;5077262;28;20189;-78
2021/05/17 02:35:20;;;;;;;2.60;1.50;;;10.70;99.90;;;;;;5074487;28;20486;-78
2021/05/17 02:37:47;;;;;;;6.13;1.63;;;10.70;99.90;;;;;;5073042;28;20462;-78
2021/05/17 02:40:14;;;;;;;3.63;1.53;;;10.70;99.90;;;;;;5073274;28;20978;-78
2021/05/17 02:42:44;;;;;;;2.80;1.20;;;10.70;99.90;;;;;;5058947;28;20415;-78
2021/05/17 02:45:10;;;;;;;2.50;1.33;;;10.70;99.90;;;;;;5065404;28;20480;-78
2021/05/17 02:47:38;;;;;;;2.83;1.60;;;10.50;99.90;;;;;;5075598;28;20428;-77
2021/05/17 02:50:06;;;;;;;2.80;1.20;;;10.60;99.90;;;;;;5058784;28;20424;-78
2021/05/17 02:52:34;;;;;;;1.80;1.10;;;10.60;99.90;;;;;;5058936;28;20442;-78
2021/05/17 02:55:07;;;;;;;2.63;1.40;;;10.60;99.90;;;;;;5076369;28;20460;-77
2021/05/17 02:57:39;;;;;;;5.50;4.17;;;10.80;99.90;;;;;;5076085;28;20416;-78
2021/05/17 03:00:07;;;;;;;1.67;1.37;;;10.70;99.90;;;;;;5053528;28;20782;-78
2021/05/17 03:02:40;;;;;;;2.07;1.67;;;10.70;99.90;;;;;;5063531;28;20417;-78
2021/05/17 03:05:07;;;;;;;3.13;1.67;;;10.70;99.90;;;;;;5048539;28;20451;-77
2021/05/17 03:07:37;;;;;;;3.10;1.37;;;10.60;99.90;;;;;;5074232;28;20432;-78
2021/05/17 03:10:04;;;;;;;2.00;1.80;;;10.60;99.90;;;;;;5075754;28;20509;-78
2021/05/17 03:12:31;;;;;;;1.77;1.67;;;10.50;99.90;;;;;;5062086;28;20439;-78
2021/05/17 03:14:57;;;;;;;3.23;1.67;;;10.50;99.90;;;;;;5053454;28;20455;-77
2021/05/17 03:17:26;;;;;;;1.70;1.50;;;10.50;99.90;;;;;;5075590;28;20448;-78
2021/05/17 03:19:51;;;;;;;2.60;1.77;;;10.70;99.90;;;;;;5057187;28;20415;-78
2021/05/17 03:22:18;;;;;;;1.90;1.80;;;10.70;99.90;;;;;;5075687;28;20412;-77
2021/05/17 03:24:44;;;;;;;3.47;1.93;;;10.70;99.90;;;;;;5076202;28;20170;-77
2021/05/17 03:27:20;;;;;;;2.83;1.90;;;10.80;99.90;;;;;;5075675;28;20424;-78
2021/05/17 03:29:46;;;;;;;1.57;1.47;;;10.80;99.90;;;;;;5057661;28;20419;-77
2021/05/17 03:32:12;;;;;;;4.93;1.57;;;10.80;99.90;;;;;;5057085;28;20424;-77
2021/05/17 03:34:37;;;;;;;2.97;1.90;;;10.90;99.90;;;;;;5070652;28;20478;-77
2021/05/17 03:37:03;;;;;;;2.60;1.40;;;10.90;99.90;;;;;;5075382;28;20166;-77
2021/05/17 03:39:29;;;;;;;2.23;1.60;;;10.90;99.90;;;;;;5057058;28;20166;-78
2021/05/17 03:41:54;;;;;;;2.17;1.90;;;10.90;99.90;;;;;;5048906;28;20567;-78
2021/05/17 03:44:20;;;;;;;2.77;1.50;;;11.00;99.90;;;;;;5075213;28;20190;-78
2021/05/17 03:46:45;;;;;;;2.30;2.10;;;11.00;99.90;;;;;;5074916;28;20247;-78
2021/05/17 03:49:11;;;;;;;1.80;1.70;;;11.00;99.90;;;;;;5068625;28;20234;-78
2021/05/17 03:51:37;;;;;;;2.23;1.60;;;11.10;99.90;;;;;;5075683;28;20171;-78
2021/05/17 03:54:02;;;;;;;1.60;1.50;;;11.10;99.90;;;;;;5057295;28;20264;-78
2021/05/17 03:56:28;;;;;;;2.00;1.53;;;11.10;99.90;;;;;;5057919;28;20196;-78
2021/05/17 03:58:53;;;;;;;4.13;2.13;;;11.00;99.90;;;;;;5056925;28;20788;-78
2021/05/17 04:01:19;;;;;;;3.27;2.00;;;11.00;99.90;;;;;;5074686;28;20162;-78
2021/05/17 04:03:45;;;;;;;2.57;1.80;;;10.90;99.90;;;;;;5074622;28;20253;-78
2021/05/17 04:06:17;;;;;;;1.70;1.60;;;10.90;99.90;;;;;;5063666;28;20741;-78
2021/05/17 04:13:15;;;;;;;3.53;2.17;;;10.90;99.90;;;;;;5074389;28;20423;-78
2021/05/17 04:14:22;;;;;;;2.90;2.00;;;10.80;99.90;;;;;;5053346;28;20808;-78
2021/05/17 04:16:47;;;;;;;5.53;1.70;;;10.80;99.90;;;;;;5073324;28;20443;-78
2021/05/17 04:19:13;;;;;;;3.73;2.03;;;10.80;99.90;;;;;;5056501;28;20177;-78
2021/05/17 04:21:40;;;;;;;3.27;2.00;;;10.80;99.90;;;;;;5073954;28;20170;-78
2021/05/17 04:24:06;;;;;;;5.43;1.90;;;10.80;99.90;;;;;;5074701;28;20663;-78
2021/05/17 04:26:31;;;;;;;3.10;2.17;;;10.90;99.90;;;;;;5074482;28;20968;-77
2021/05/17 04:28:58;;;;;;;1.90;1.40;;;10.90;99.90;;;;;;5074002;28;20404;-78
2021/05/17 04:31:23;;;;;;;1.53;1.43;;;10.90;99.90;;;;;;5072721;28;20222;-77
2021/05/17 04:33:49;;;;;;;1.83;1.73;;;11.10;99.90;;;;;;5056751;28;20511;-78
2021/05/17 04:36:14;;;;;;;46.40;31.40;;;11.10;99.90;;;;;;5056866;28;20197;-78
2021/05/17 04:38:40;;;;;;;2.63;2.40;;;11.10;99.90;;;;;;5070024;28;20174;-78
2021/05/17 04:41:06;;;;;;;2.07;1.90;;;11.20;99.90;;;;;;5075530;28;20640;-78
2021/05/17 04:43:33;;;;;;;3.23;2.23;;;11.40;99.90;;;;;;5076047;28;20167;-78
2021/05/17 04:46:02;;;;;;;1.90;1.80;;;11.40;99.90;;;;;;5058148;28;20655;-78
2021/05/17 04:48:28;;;;;;;2.30;1.60;;;11.50;99.90;;;;;;5041710;28;20437;-78
2021/05/17 04:50:53;;;;;;;2.70;1.80;;;11.60;99.90;;;;;;5057467;28;20430;-78
2021/05/17 04:53:35;;;;;;;1.67;1.50;;;11.40;99.90;;;;;;5050953;28;20433;-78
2021/05/17 04:56:09;;;;;;;2.30;1.50;;;11.50;99.90;;;;;;5060878;28;20217;-78
2021/05/17 04:58:35;;;;;;;1.80;1.70;;;11.30;99.90;;;;;;5061041;28;20474;-78
2021/05/17 05:01:00;;;;;;;3.23;1.57;;;11.30;99.90;;;;;;5057688;28;20197;-78
2021/05/17 05:03:26;;;;;;;2.03;1.83;;;11.50;99.90;;;;;;5074666;28;20412;-79
2021/05/17 05:05:51;;;;;;;2.70;2.10;;;11.50;99.90;;;;;;5069087;28;20205;-77
2021/05/17 05:08:17;;;;;;;4.30;2.13;;;11.60;99.90;;;;;;5054575;28;20270;-78
2021/05/17 05:10:43;;;;;;;5.97;1.57;;;11.60;99.90;;;;;;5060766;28;20179;-78
2021/05/17 05:13:08;;;;;;;2.57;1.80;;;11.60;99.90;;;;;;5074061;28;20647;-78
2021/05/17 05:15:34;;;;;;;7.53;2.20;;;11.60;99.90;;;;;;5075157;28;20284;-78
2021/05/17 05:17:59;;;;;;;2.40;1.83;;;11.60;99.90;;;;;;5075316;28;20174;-78
2021/05/17 05:20:27;;;;;;;4.53;2.63;;;11.70;99.90;;;;;;5074605;28;20177;-78
2021/05/17 05:22:52;;;;;;;1.90;1.70;;;11.60;99.90;;;;;;5074481;28;20177;-78
2021/05/17 05:25:19;;;;;;;3.23;2.50;;;11.60;99.90;;;;;;5069546;28;20531;-78
2021/05/17 05:27:48;;;;;;;5.47;2.27;;;11.60;99.90;;;;;;5057200;28;20269;-78
2021/05/17 05:30:26;;;;;;;4.97;1.90;;;11.60;99.90;;;;;;5074836;28;20804;-78
2021/05/17 05:33:08;;;;;;;1.90;1.60;;;11.70;99.90;;;;;;5075533;28;20431;-78
2021/05/17 05:35:34;;;;;;;5.63;2.40;;;11.70;99.90;;;;;;5064966;28;20473;-79
2021/05/17 05:38:00;;;;;;;5.10;2.17;;;11.70;99.90;;;;;;5074177;28;20619;-78
2021/05/17 05:40:26;;;;;;;3.40;2.07;;;11.80;99.90;;;;;;5074835;28;20788;-78
2021/05/17 05:42:51;;;;;;;4.73;1.50;;;11.90;99.90;;;;;;5073507;28;20423;-78
2021/05/17 05:45:17;;;;;;;7.73;1.97;;;12.10;99.90;;;;;;5074421;28;20205;-78
2021/05/17 05:47:43;;;;;;;1.67;1.57;;;12.10;99.90;;;;;;5074726;28;20202;-78
2021/05/17 05:50:09;;;;;;;2.80;1.83;;;12.30;99.90;;;;;;5073913;28;20424;-78
2021/05/17 05:52:37;;;;;;;2.10;1.80;;;12.30;99.90;;;;;;5074382;28;20202;-78
2021/05/17 05:55:04;;;;;;;2.50;1.80;;;12.40;99.90;;;;;;5073973;28;20491;-78
2021/05/17 05:57:40;;;;;;;5.63;3.03;;;12.50;99.90;;;;;;5074658;28;20409;-78
2021/05/17 06:00:08;;;;;;;4.33;2.00;;;12.60;99.90;;;;;;5055846;28;20407;-78
2021/05/17 06:02:33;;;;;;;1.57;1.23;;;12.70;99.90;;;;;;5069564;28;20444;-78
2021/05/17 06:04:59;;;;;;;3.80;1.77;;;12.80;99.90;;;;;;5061262;28;20448;-78
2021/05/17 06:07:25;;;;;;;3.90;1.60;;;12.60;99.90;;;;;;5074238;28;20182;-78
2021/05/17 06:09:50;;;;;;;1.87;1.40;;;12.70;99.90;;;;;;5069469;28;20206;-78
2021/05/17 06:12:18;;;;;;;2.60;1.67;;;12.60;99.90;;;;;;5074303;28;20189;-78
2021/05/17 06:14:48;;;;;;;3.40;1.70;;;12.60;99.90;;;;;;5073840;28;20182;-78
2021/05/17 06:17:37;;;;;;;4.37;1.90;;;12.70;99.90;;;;;;5069538;28;20499;-78
2021/05/17 06:20:04;;;;;;;3.63;1.30;;;12.60;99.90;;;;;;5056893;28;20440;-78
2021/05/17 06:22:30;;;;;;;2.03;1.20;;;12.60;99.90;;;;;;5056995;28;20427;-78
2021/05/17 06:24:57;;;;;;;4.10;1.60;;;12.70;99.90;;;;;;5074849;28;20593;-79
2021/05/17 06:27:23;;;;;;;4.90;1.50;;;12.90;99.90;;;;;;5076297;28;20412;-78
2021/05/17 06:29:58;;;;;;;2.23;1.30;;;12.80;99.90;;;;;;5077296;28;20427;-78
2021/05/17 06:32:27;;;;;;;7.10;2.90;;;13.00;99.90;;;;;;5073666;28;21135;-79
2021/05/17 06:34:55;;;;;;;4.47;1.87;;;13.00;99.90;;;;;;5058851;28;20977;-78
2021/05/17 06:37:20;;;;;;;3.37;1.40;;;13.00;99.90;;;;;;5076980;28;20853;-79
2021/05/17 06:39:46;;;;;;;3.10;1.70;;;13.20;99.90;;;;;;5065271;28;20448;-78
2021/05/17 06:42:13;;;;;;;3.20;1.60;;;13.50;99.90;;;;;;5057928;28;20173;-79
2021/05/17 06:44:39;;;;;;;2.57;1.50;;;13.70;99.90;;;;;;5070178;28;20174;-79
2021/05/17 06:47:06;;;;;;;4.07;1.10;;;13.70;99.90;;;;;;5066443;28;20424;-79
2021/05/17 06:49:32;;;;;;;3.37;1.43;;;13.60;99.90;;;;;;5075919;28;20435;-79
2021/05/17 06:51:59;;;;;;;2.10;1.50;;;13.60;99.90;;;;;;5075966;28;20450;-79
2021/05/17 06:54:28;;;;;;;3.23;1.50;;;13.70;99.90;;;;;;5076048;28;20582;-79
2021/05/17 06:57:05;;;;;;;1.93;1.20;;;13.80;99.90;;;;;;5075340;28;20447;-79
2021/05/17 06:59:41;;;;;;;4.27;1.10;;;13.90;99.90;;;;;;5065613;28;20434;-79
2021/05/17 07:02:18;;;;;;;4.93;1.63;;;14.00;99.90;;;;;;5067694;28;20419;-79
2021/05/17 07:04:45;;;;;;;2.60;1.13;;;14.10;99.90;;;;;;5058829;28;20447;-79
2021/05/17 07:13:01;;;;;;;1.60;1.37;;;14.20;99.90;;;;;;5072754;28;20451;-79
2021/05/17 07:15:26;;;;;;;3.10;1.30;;;14.20;99.90;;;;;;5076784;28;20456;-78
2021/05/17 07:17:52;;;;;;;1.50;1.07;;;14.40;99.90;;;;;;5074203;28;20170;-79
2021/05/17 07:20:24;;;;;;;4.13;1.30;;;14.70;99.90;;;;;;5072453;28;20234;-79
2021/05/17 07:25:33;;;;;;;2.27;1.20;;;14.90;99.90;;;;;;5075210;28;20505;-79
2021/05/17 07:27:59;;;;;;;3.63;1.73;;;14.70;99.90;;;;;;5074683;28;20416;-79
2021/05/17 07:30:26;;;;;;;6.43;1.10;;;14.50;99.90;;;;;;5069144;28;20220;-79
2021/05/17 07:32:52;;;;;;;1.20;1.00;;;14.50;99.90;;;;;;5053662;28;20223;-78
2021/05/17 07:35:17;;;;;;;2.90;1.13;;;14.60;99.90;;;;;;5073294;28;20456;-79
2021/05/17 07:37:43;;;;;;;1.97;1.57;;;14.50;99.90;;;;;;5073391;28;20163;-79
2021/05/17 07:40:09;;;;;;;1.67;1.10;;;14.60;99.90;;;;;;5073888;28;20706;-79
2021/05/17 07:42:36;;;;;;;1.47;1.20;;;14.90;99.90;;;;;;5073787;28;20170;-79
2021/05/17 07:45:02;;;;;;;3.63;1.47;;;15.10;99.90;;;;;;5055991;28;20436;-79
2021/05/17 07:47:28;;;;;;;2.40;1.00;;;15.00;99.90;;;;;;5070046;28;20508;-79
2021/05/17 07:49:54;;;;;;;3.37;1.30;;;14.90;99.90;;;;;;5071001;28;20503;-79
2021/05/17 07:52:22;;;;;;;1.97;1.40;;;14.90;99.90;;;;;;5056314;28;20189;-79
2021/05/17 07:54:48;;;;;;;1.40;0.97;;;14.70;99.90;;;;;;5074548;28;20448;-78
2021/05/17 07:57:15;;;;;;;1.57;1.00;;;14.90;99.90;;;;;;5074343;28;21072;-79
2021/05/17 07:59:41;;;;;;;2.80;1.33;;;15.20;99.90;;;;;;5073382;28;20499;-79
2021/05/17 08:02:06;;;;;;;2.30;1.13;;;15.70;99.90;;;;;;5074179;28;20436;-77
2021/05/17 08:04:32;;;;;;;3.73;1.40;;;16.10;99.90;;;;;;5072897;28;20239;-79
2021/05/17 08:06:58;;;;;;;5.90;4.10;;;16.00;99.90;;;;;;5055876;28;20221;-78
2021/05/17 08:09:24;;;;;;;5.43;2.03;;;15.60;99.90;;;;;;5073569;28;20784;-79
2021/05/17 08:11:51;;;;;;;35.03;30.93;;;15.50;99.90;;;;;;5073146;28;20424;-79
2021/05/17 08:14:17;;;;;;;1.60;1.20;;;15.20;99.90;;;;;;5075077;28;20200;-79
2021/05/17 08:16:46;;;;;;;4.10;2.13;;;15.10;99.90;;;;;;5074877;28;20433;-78
2021/05/17 08:19:12;;;;;;;2.23;1.07;;;15.00;99.90;;;;;;5057099;28;20946;-79
2021/05/17 08:21:38;;;;;;;1.60;1.00;;;15.10;99.90;;;;;;5054145;28;20441;-80
2021/05/17 08:24:04;;;;;;;6.13;1.63;;;15.00;99.90;;;;;;5071691;28;20839;-80
2021/05/17 08:26:30;;;;;;;2.17;1.20;;;14.90;99.90;;;;;;5062991;28;20293;-78
2021/05/17 08:28:56;;;;;;;2.80;1.30;;;14.90;99.90;;;;;;5069682;28;20444;-79
2021/05/17 08:31:23;;;;;;;1.73;1.40;;;14.80;99.90;;;;;;5061745;28;20849;-80
2021/05/17 08:33:49;;;;;;;1.77;1.30;;;15.00;99.90;;;;;;5068129;28;20220;-80
2021/05/17 08:36:15;;;;;;;2.60;1.10;;;15.20;99.90;;;;;;5061186;28;20972;-80
2021/05/17 08:38:41;;;;;;;1.53;0.90;;;15.40;99.90;;;;;;5066086;28;20455;-79
2021/05/17 08:41:08;;;;;;;1.30;0.90;;;15.60;99.90;;;;;;5073298;28;20198;-80
2021/05/17 08:43:37;;;;;;;2.73;1.20;;;15.40;99.90;;;;;;5075129;28;20429;-79
2021/05/17 08:46:03;;;;;;;1.67;0.90;;;15.10;99.90;;;;;;5057756;28;20441;-80
2021/05/17 08:48:28;;;;;;;2.03;1.10;;;15.00;99.90;;;;;;5057466;28;20447;-79
2021/05/17 08:50:54;;;;;;;2.43;0.87;;;14.90;99.90;;;;;;5063202;28;20440;-80
2021/05/17 08:53:20;;;;;;;1.70;1.10;;;14.70;99.90;;;;;;5057176;28;20209;-79
2021/05/17 08:55:45;;;;;;;1.40;1.30;;;14.50;99.90;;;;;;5047963;28;20201;-80
2021/05/17 08:58:11;;;;;;;1.67;0.90;;;14.80;99.90;;;;;;5042236;28;20178;-80
2021/05/17 09:00:37;;;;;;;3.27;0.90;;;14.90;99.90;;;;;;5065595;28;20231;-80
2021/05/17 09:03:03;;;;;;;1.83;0.90;;;15.00;99.90;;;;;;5064945;28;20252;-79
2021/05/17 09:05:32;;;;;;;3.43;1.27;;;15.10;99.90;;;;;;5054329;28;20548;-77
2021/05/17 09:08:01;;;;;;;1.40;1.00;;;15.30;99.90;;;;;;5073558;28;20262;-77
2021/05/17 09:10:34;;;;;;;1.67;0.83;;;15.70;99.90;;;;;;5070938;28;20428;-77
2021/05/17 09:13:05;;;;;;;1.40;1.10;;;16.50;99.90;;;;;;5071283;28;20796;-78
2021/05/17 09:15:47;;;;;;;1.30;0.80;;;16.80;99.90;;;;;;5054676;28;21046;-77
2021/05/17 09:18:27;;;;;;;1.67;1.20;;;17.30;99.90;;;;;;5072697;28;20437;-77
2021/05/17 09:20:54;;;;;;;2.17;1.20;;;18.00;99.90;;;;;;5053269;28;20840;-77
2021/05/17 09:23:31;;;;;;;3.60;3.27;;;18.30;99.90;;;;;;5050309;28;20444;-77
2021/05/17 09:25:58;;;;;;;11.50;8.70;;;18.70;99.90;;;;;;5051757;28;20444;-79
2021/05/17 09:28:26;;;;;;;1.73;1.10;;;18.70;99.90;;;;;;5068192;28;20433;-76
2021/05/17 09:30:55;;;;;;;1.60;1.23;;;19.00;99.90;;;;;;5060241;28;20886;-77
2021/05/17 09:33:22;;;;;;;1.43;1.20;;;18.80;99.90;;;;;;5063830;28;20433;-76
2021/05/17 09:35:49;;;;;;;1.13;1.03;;;19.00;99.90;;;;;;5052590;28;20801;-78
2021/05/17 09:38:24;;;;;;;2.33;1.10;;;18.40;99.90;;;;;;5051914;28;20492;-78
2021/05/17 09:41:01;;;;;;;2.60;1.17;;;18.40;99.90;;;;;;5062129;28;20431;-78
2021/05/17 09:43:28;;;;;;;2.43;1.20;;;17.60;99.90;;;;;;5069852;28;20436;-78
2021/05/17 09:45:53;;;;;;;2.73;1.20;;;18.10;99.90;;;;;;5060308;28;20460;-77
2021/05/17 09:48:21;;;;;;;2.37;1.20;;;18.20;99.90;;;;;;5072523;28;20534;-78
2021/05/17 09:51:03;;;;;;;2.23;1.50;;;17.60;99.90;;;;;;5056957;28;20179;-78
2021/05/17 09:53:39;;;;;;;5.27;1.40;;;17.60;99.90;;;;;;5054418;28;20429;-78
2021/05/17 09:56:18;;;;;;;2.93;1.00;;;17.20;99.90;;;;;;5053831;28;20464;-78
2021/05/17 09:58:45;;;;;;;1.93;1.10;;;17.00;99.90;;;;;;5059575;28;20843;-77
2021/05/17 10:01:38;;;;;;;2.50;1.40;;;16.80;99.90;;;;;;5064243;28;20551;-78
2021/05/17 10:04:06;;;;;;;1.93;1.03;;;16.70;99.90;;;;;;5073337;28;21016;-79
2021/05/17 10:06:32;;;;;;;4.13;1.23;;;16.90;99.90;;;;;;5059456;28;20503;-78
2021/05/17 10:08:58;;;;;;;3.50;1.17;;;17.30;99.90;;;;;;5078922;28;20413;-78
2021/05/17 10:11:25;;;;;;;2.00;1.10;;;17.80;99.90;;;;;;5075199;28;20432;-78
2021/05/17 10:13:52;;;;;;;2.30;0.93;;;18.10;99.90;;;;;;5078164;28;20436;-78
2021/05/17 10:16:19;;;;;;;2.13;1.10;;;17.80;99.90;;;;;;5078951;28;20510;-78
2021/05/17 10:18:46;;;;;;;5.13;1.57;;;17.40;99.90;;;;;;5082202;28;20407;-78
2021/05/17 10:21:18;;;;;;;2.57;1.00;;;17.20;99.90;;;;;;5076036;28;20436;-78
2021/05/17 10:23:46;;;;;;;3.90;1.50;;;16.80;99.90;;;;;;5058623;28;20469;-78
2021/05/17 10:26:18;;;;;;;1.43;1.27;;;16.50;99.90;;;;;;5063240;28;20453;-78
2021/05/17 10:28:54;;;;;;;1.10;0.93;;;16.10;99.90;;;;;;5062490;28;20461;-78
2021/05/17 10:31:23;;;;;;;1.40;1.13;;;15.50;99.90;;;;;;5072566;28;20439;-77
2021/05/17 10:33:59;;;;;;;1.63;0.90;;;15.00;99.90;;;;;;5045554;28;20504;-77
2021/05/17 10:36:59;;;;;;;1.53;0.80;;;14.60;99.90;;;;;;5074351;28;20469;-77
2021/05/17 10:39:33;;;;;;;3.63;1.07;;;14.30;99.90;;;;;;5052836;28;20431;-77
2021/05/17 10:42:20;;;;;;;1.53;1.00;;;13.90;99.90;;;;;;5094546;28;20384;-77
2021/05/17 10:47:42;;;;;;;1.20;1.00;;;14.00;99.90;;;;;;5078048;28;20399;-78
2021/05/17 10:50:16;;;;;;;1.63;0.80;;;14.00;99.90;;;;;;5077645;28;20439;-77
2021/05/17 10:52:42;;;;;;;1.27;0.80;;;14.00;99.90;;;;;;5065012;28;20499;-78
2021/05/17 10:55:13;;;;;;;1.07;0.80;;;13.90;99.90;;;;;;5073553;28;20912;-77
2021/05/17 10:58:21;;;;;;;1.20;0.90;;;13.90;99.90;;;;;;5071544;28;20170;-77
2021/05/17 11:00:40;;;;;;;1.50;0.80;;;14.10;99.90;;;;;;5071298;28;20436;-78
2021/05/17 11:03:13;;;;;;;3.87;0.80;;;14.30;99.90;;;;;;5037154;28;20436;-78
2021/05/17 11:05:40;;;;;;;1.03;0.70;;;14.60;99.90;;;;;;5061973;28;20456;-79
2021/05/17 11:08:14;;;;;;;1.20;0.70;;;14.90;99.90;;;;;;5063152;28;20481;-78
2021/05/17 11:10:45;;;;;;;1.87;0.90;;;15.10;99.90;;;;;;5078064;28;20408;-78
2021/05/17 11:13:19;;;;;;;3.07;1.23;;;15.00;99.90;;;;;;5077870;28;20878;-78
2021/05/17 11:15:56;;;;;;;1.37;0.87;;;15.00;99.90;;;;;;5056325;28;20490;-78
2021/05/17 11:18:39;;;;;;;0.80;0.70;;;14.90;99.90;;;;;;5070583;28;20437;-77
2021/05/17 11:21:21;;;;;;;1.70;1.00;;;14.70;99.90;;;;;;5071776;28;20408;-77
2021/05/17 11:23:49;;;;;;;0.80;0.60;;;14.60;99.90;;;;;;5060826;28;20922;-77
2021/05/17 11:26:17;;;;;;;2.00;1.10;;;14.00;99.90;;;;;;5064478;28;20456;-77
2021/05/17 11:28:43;;;;;;;3.67;1.00;;;14.00;99.90;;;;;;5069546;28;20486;-77
2021/05/17 11:31:40;;;;;;;1.00;0.80;;;13.70;99.90;;;;;;5070500;28;20827;-77
2021/05/17 11:34:17;;;;;;;1.00;0.80;;;13.70;99.90;;;;;;5066077;28;20185;-77
2021/05/17 11:36:50;;;;;;;4.70;1.20;;;13.60;99.90;;;;;;5054621;28;20847;-77
2021/05/17 11:39:23;;;;;;;4.53;0.90;;;13.40;99.90;;;;;;5049238;28;20428;-77
2021/05/17 11:41:58;;;;;;;5.57;2.40;;;13.40;99.90;;;;;;5071180;28;20431;-77
2021/05/17 11:44:27;;;;;;;1.97;0.80;;;13.40;99.90;;;;;;5067747;28;20428;-77
2021/05/17 11:46:57;;;;;;;4.93;2.67;;;13.30;99.90;;;;;;5068996;28;20470;-76
2021/05/17 11:49:28;;;;;;;3.33;2.20;;;13.40;99.90;;;;;;5074806;28;20558;-77
2021/05/17 11:51:57;;;;;;;2.67;2.27;;;13.30;99.90;;;;;;5074365;28;20448;-78
2021/05/17 11:54:24;;;;;;;1.77;0.90;;;13.50;99.90;;;;;;5067871;28;20863;-78
2021/05/17 11:56:55;;;;;;;1.43;1.33;;;13.50;99.90;;;;;;5057120;28;20461;-78
2021/05/17 11:59:24;;;;;;;1.87;0.90;;;13.40;99.90;;;;;;5071210;28;22118;-78
2021/05/17 12:01:52;;;;;;;3.10;1.43;;;13.50;99.90;;;;;;5064597;28;20432;-77
2021/05/17 12:04:19;;;;;;;1.10;1.00;;;13.70;99.90;;;;;;5073230;28;20436;-76
2021/05/17 12:06:53;;;;;;;0.90;0.80;;;13.80;99.90;;;;;;5068577;28;20456;-77
2021/05/17 12:09:26;;;;;;;2.30;0.93;;;13.80;99.90;;;;;;5053176;28;20475;-77
2021/05/17 12:11:52;;;;;;;3.77;1.27;;;14.00;99.90;;;;;;5069870;28;20782;-76
2021/05/17 12:14:17;;;;;;;2.40;1.20;;;14.10;99.90;;;;;;5071590;28;20432;-77
2021/05/17 12:16:43;;;;;;;1.73;1.20;;;14.00;99.90;;;;;;5059537;28;20189;-76
2021/05/17 12:19:13;;;;;;;2.30;1.30;;;14.10;99.90;;;;;;5047600;28;20183;-77
2021/05/17 12:21:38;;;;;;;3.80;1.17;;;14.10;99.90;;;;;;5051722;28;20175;-77
2021/05/17 12:24:05;;;;;;;2.53;1.50;;;14.00;99.90;;;;;;5061044;28;20459;-77
2021/05/17 12:26:58;;;;;;;2.30;1.30;;;13.80;99.90;;;;;;5071065;28;20198;-79
2021/05/17 12:29:24;;;;;;;1.37;1.10;;;14.00;99.90;;;;;;5060191;28;20428;-77
2021/05/17 12:31:51;;;;;;;4.50;1.50;;;14.60;99.90;;;;;;5067132;28;20810;-77
2021/05/17 12:34:26;;;;;;;5.17;1.33;;;15.00;99.90;;;;;;5075044;28;20265;-78
2021/05/17 12:36:54;;;;;;;2.90;1.83;;;15.30;99.90;;;;;;5068560;28;20595;-79
2021/05/17 12:39:19;;;;;;;2.23;1.70;;;15.40;99.90;;;;;;5051041;28;20941;-77
2021/05/17 12:41:47;;;;;;;2.33;1.60;;;15.20;99.90;;;;;;5068133;28;20443;-77
2021/05/17 12:44:34;;;;;;;6.33;1.63;;;15.00;99.90;;;;;;5071000;28;20248;-77
2021/05/17 12:47:09;;;;;;;5.10;2.07;;;14.80;99.90;;;;;;5054928;28;20547;-78
2021/05/17 12:49:46;;;;;;;4.20;2.23;;;14.70;99.90;;;;;;5036618;28;20447;-77
2021/05/17 12:52:11;;;;;;;4.43;1.90;;;14.70;99.90;;;;;;5060322;28;20429;-77
2021/05/17 12:54:37;;;;;;;2.70;2.50;;;14.40;99.90;;;;;;5070729;28;20505;-77
2021/05/17 12:57:08;;;;;;;4.03;3.63;;;14.20;99.90;;;;;;5063682;28;20186;-78
2021/05/17 12:59:53;;;;;;;5.53;2.60;;;14.00;99.90;;;;;;5040394;28;20179;-76
2021/05/17 13:02:19;;;;;;;7.30;2.90;;;13.70;99.90;;;;;;5057660;28;20481;-77
2021/05/17 13:04:55;;;;;;;5.83;3.10;;;13.60;99.90;;;;;;5067434;28;20790;-78
2021/05/17 13:07:20;;;;;;;2.90;2.70;;;13.70;99.90;;;;;;5070086;28;20192;-77
2021/05/17 13:09:56;;;;;;;3.30;2.70;;;13.90;99.90;;;;;;5046089;28;20448;-77
2021/05/17 13:12:22;;;;;;;5.33;2.67;;;14.20;99.90;;;;;;5068286;28;20187;-77